TimeEST,TemperatureF,Dew PointF,Humidity,Sea Level PressureIn,VisibilityMPH,Wind Direction,Wind SpeedMPH,Gust SpeedMPH,PrecipitationIn,Events,Conditions,WindDirDegrees,DateUTC
12:00 AM,73.4,64.4,73,30.05,6.2,NE,5.8,-,N/A,,Scattered Clouds,40,2012-11-15 05:00:00
1:00 AM,75,64,61,30.04,9,NNE,6.9,,,,Partly Cloudy,30,2012-11-15 06:00:00
1:00 AM,75.2,64.4,69,30.04,6.2,NNE,6.9,-,N/A,,Scattered Clouds,30,2012-11-15 06:00:00
2:00 AM,73.4,64.4,73,30.03,6.2,NNE,5.8,-,N/A,,Partly Cloudy,30,2012-11-15 07:00:00
3:00 AM,73.4,64.4,73,30.02,6.2,NNE,5.8,-,N/A,,Partly Cloudy,30,2012-11-15 08:00:00
4:00 AM,73,64,66,30.01,9,East,5.8,,,,Scattered Clouds,100,2012-11-15 09:00:00
4:00 AM,73.4,64.4,73,30.01,6.2,North,5.8,-,N/A,,Partly Cloudy,10,2012-11-15 09:00:00
5:00 AM,71.6,60.8,69,30.01,6.2,NNE,3.5,-,N/A,,Partly Cloudy,30,2012-11-15 10:00:00
6:00 AM,71.6,62.6,73,30.02,6.2,Calm,Calm,-,N/A,,Partly Cloudy,0,2012-11-15 11:00:00
7:00 AM,73,63,63,30.04,9,NNE,4.6,,,,Scattered Clouds,20,2012-11-15 12:00:00
7:00 AM,73.4,62.6,69,30.03,6.2,NNE,4.6,-,N/A,,Partly Cloudy,20,2012-11-15 12:00:00
8:00 AM,75.2,62.6,65,30.05,6.2,NNE,9.2,-,N/A,,Scattered Clouds,30,2012-11-15 13:00:00
9:00 AM,77.0,62.6,61,30.07,6.2,NNE,9.2,-,N/A,,Scattered Clouds,30,2012-11-15 14:00:00
10:00 AM,79,64,51,30.07,9,NNE,11.5,,,,Partly Cloudy,20,2012-11-15 15:00:00
10:00 AM,78.8,64.4,61,30.07,6.2,NNE,11.5,-,N/A,,Scattered Clouds,20,2012-11-15 15:00:00
11:00 AM,77.0,62.6,61,30.06,6.2,NNE,11.5,-,N/A,,Scattered Clouds,20,2012-11-15 16:00:00
12:00 PM,78.8,64.4,61,30.04,6.2,NNE,11.5,-,N/A,,Scattered Clouds,20,2012-11-15 17:00:00
1:00 PM,80,66,54,30.04,9,North,9.2,,,,Partly Cloudy,0,2012-11-15 18:00:00
1:00 PM,80.6,66.2,61,30.03,6.2,North,9.2,-,N/A,,Scattered Clouds,360,2012-11-15 18:00:00
2:00 PM,77.0,62.6,61,30.03,6.2,North,11.5,-,N/A,,Partly Cloudy,360,2012-11-15 19:00:00
3:00 PM,77.0,62.6,61,30.02,6.2,North,9.2,-,N/A,,Partly Cloudy,10,2012-11-15 20:00:00
4:00 PM,80,64,49,30.03,9,,3.5,,,,Partly Cloudy,,2012-11-15 21:00:00
4:00 PM,78.8,64.4,61,30.02,6.2,North,3.5,-,N/A,,Partly Cloudy,360,2012-11-15 21:00:00
5:00 PM,75.2,62.6,65,30.03,6.2,NNW,3.5,-,N/A,,Partly Cloudy,340,2012-11-15 22:00:00
6:00 PM,75.2,64.4,69,30.03,6.2,NNW,5.8,-,N/A,,Scattered Clouds,340,2012-11-15 23:00:00
7:00 PM,75,68,73,30.04,9,NNE,6.9,,,,Partly Cloudy,20,2012-11-16 00:00:00
7:00 PM,80.6,64.4,58,30.04,6.2,NNE,6.9,-,N/A,,Scattered Clouds,20,2012-11-16 00:00:00
8:00 PM,75.2,62.6,65,30.06,6.2,North,8.1,-,N/A,,Scattered Clouds,10,2012-11-16 01:00:00
9:00 PM,75.2,62.6,65,30.06,6.2,NNE,8.1,-,N/A,,Partly Cloudy,20,2012-11-16 02:00:00
10:00 PM,75,65,64,30.05,9,North,5.8,,,,Partly Cloudy,10,2012-11-16 03:00:00
10:00 PM,75.2,66.2,73,30.05,6.2,North,5.8,-,N/A,,Partly Cloudy,10,2012-11-16 03:00:00
11:00 PM,75.2,64.4,69,30.04,6.2,North,4.6,-,N/A,,Partly Cloudy,360,2012-11-16 04:00:00